Time;durP1;ratioP1;P1;durP2;ratioP2;P2;SDS_P1;SDS_P2;PMS_P1;PMS_P2;Temp;Humidity;BMP_temperature;BMP_pressure;BME280_temperature;BME280_humidity;BME280_pressure;Samples;Min_cycle;Max_cycle;Signal;HPM_P1;HPM_P2
2024/01/22 00:01:27;;;;;;;17.80;5.25;;;6.70;99.90;;;;;;5061435;28;20053;-66
2024/01/22 00:03:52;;;;;;;10.77;5.03;;;6.70;99.90;;;;;;5058412;28;20119;-67
2024/01/22 00:06:18;;;;;;;11.88;4.47;;;7.00;99.90;;;;;;5062166;28;20152;-66
2024/01/22 00:08:44;;;;;;;13.38;5.53;;;6.70;99.90;;;;;;5060800;28;20048;-66
2024/01/22 00:11:10;;;;;;;10.95;4.68;;;6.70;99.90;;;;;;5062140;28;20044;-67
2024/01/22 00:13:37;;;;;;;13.95;5.10;;;6.70;99.90;;;;;;5061277;28;20045;-66
2024/01/22 00:16:02;;;;;;;9.25;4.78;;;6.90;99.90;;;;;;5062056;28;20079;-66
2024/01/22 00:18:28;;;;;;;9.02;4.22;;;6.80;99.90;;;;;;5059001;28;20127;-66
2024/01/22 00:20:54;;;;;;;13.25;4.90;;;6.80;99.90;;;;;;5061046;28;20098;-69
2024/01/22 00:23:20;;;;;;;13.70;4.43;;;6.90;99.90;;;;;;5061307;28;20036;-67
2024/01/22 00:25:46;;;;;;;13.38;4.32;;;6.90;99.90;;;;;;5059971;28;20033;-68
2024/01/22 00:28:12;;;;;;;11.52;4.80;;;6.90;99.90;;;;;;5060467;28;20387;-66
2024/01/22 00:30:37;;;;;;;13.77;5.28;;;6.90;99.90;;;;;;5044325;28;20055;-66
2024/01/22 00:33:03;;;;;;;10.43;4.47;;;6.90;99.90;;;;;;5059657;28;20584;-66
2024/01/22 00:35:29;;;;;;;7.82;4.32;;;7.30;99.90;;;;;;5060938;28;20052;-66
2024/01/22 00:37:55;;;;;;;10.50;4.55;;;7.00;99.90;;;;;;5042331;28;20043;-66
2024/01/22 00:40:23;;;;;;;13.65;4.75;;;7.00;99.90;;;;;;5060253;28;20079;-67
2024/01/22 00:42:49;;;;;;;11.50;4.55;;;7.00;99.90;;;;;;5061065;28;20507;-66
2024/01/22 00:45:15;;;;;;;12.00;4.28;;;7.10;99.90;;;;;;5060557;28;20044;-66
2024/01/22 00:47:40;;;;;;;11.52;4.18;;;7.10;99.90;;;;;;5043660;28;20044;-66
2024/01/22 00:50:06;;;;;;;9.32;4.07;;;7.10;99.90;;;;;;5044473;28;20066;-66
2024/01/22 00:52:32;;;;;;;10.18;4.13;;;7.10;99.90;;;;;;5061055;28;20056;-66
2024/01/22 00:54:57;;;;;;;12.23;4.35;;;7.10;99.90;;;;;;5059394;28;20358;-66
2024/01/22 00:57:23;;;;;;;10.93;4.22;;;7.10;99.90;;;;;;5044509;28;20036;-66
2024/01/22 00:59:49;;;;;;;11.23;4.00;;;7.60;99.90;;;;;;5058653;28;20815;-65
2024/01/22 01:02:16;;;;;;;9.90;4.10;;;7.20;99.90;;;;;;5060400;28;20037;-66
2024/01/22 01:04:41;;;;;;;11.73;4.97;;;7.20;99.90;;;;;;5059576;28;20501;-66
2024/01/22 01:07:07;;;;;;;10.25;3.95;;;7.20;99.90;;;;;;5060801;28;20040;-66
2024/01/22 01:09:33;;;;;;;8.45;4.00;;;7.20;99.90;;;;;;5057966;28;20094;-66
2024/01/22 01:11:58;;;;;;;13.88;4.68;;;7.20;99.90;;;;;;5060752;28;20044;-66
2024/01/22 01:14:25;;;;;;;14.57;4.55;;;7.30;99.90;;;;;;5061514;28;20098;-68
2024/01/22 01:16:51;;;;;;;12.70;4.20;;;7.30;99.90;;;;;;5044515;28;20083;-68
2024/01/22 01:19:17;;;;;;;11.82;5.57;;;7.30;99.90;;;;;;5041225;28;20044;-67
2024/01/22 01:21:43;;;;;;;15.48;4.57;;;7.40;99.90;;;;;;5059003;28;20048;-66
2024/01/22 01:24:08;;;;;;;12.57;4.30;;;7.80;99.90;;;;;;5060382;28;20066;-66
2024/01/22 01:26:43;;;;;;;14.75;4.40;;;7.40;99.90;;;;;;5044577;28;20428;-67
2024/01/22 01:29:09;;;;;;;10.13;4.03;;;7.40;99.90;;;;;;5059753;28;20083;-69
2024/01/22 01:31:35;;;;;;;12.88;4.68;;;7.40;99.90;;;;;;5045056;28;20044;-68
2024/01/22 01:34:01;;;;;;;11.68;4.68;;;7.50;99.90;;;;;;5042317;28;20125;-66
2024/01/22 01:36:26;;;;;;;9.52;4.72;;;7.50;99.90;;;;;;5045661;28;20690;-67
2024/01/22 01:38:52;;;;;;;16.10;4.65;;;7.50;99.90;;;;;;5061050;28;20037;-67
2024/01/22 01:41:18;;;;;;;11.95;4.53;;;7.60;99.90;;;;;;5060629;28;20721;-68
2024/01/22 01:43:43;;;;;;;8.60;3.90;;;7.60;99.90;;;;;;5042169;28;20766;-67
2024/01/22 01:46:09;;;;;;;8.68;4.35;;;7.60;99.90;;;;;;5061197;28;20557;-69
2024/01/22 01:48:35;;;;;;;12.18;4.10;;;7.60;99.90;;;;;;5057408;28;20044;-67
2024/01/22 01:51:02;;;;;;;14.02;4.40;;;7.70;99.90;;;;;;5060075;28;20047;-68
2024/01/22 01:53:29;;;;;;;9.30;4.38;;;7.80;99.90;;;;;;5060003;28;20685;-67
2024/01/22 01:55:55;;;;;;;11.68;4.70;;;7.80;99.90;;;;;;5074535;28;20716;-68
2024/01/22 01:58:22;;;;;;;11.10;4.60;;;7.80;99.90;;;;;;5041073;28;20045;-67
2024/01/22 02:00:49;;;;;;;11.80;4.47;;;7.80;99.90;;;;;;5044485;28;20044;-67
2024/01/22 02:03:15;;;;;;;13.52;4.82;;;7.90;99.90;;;;;;5043924;28;20045;-67
2024/01/22 02:05:41;;;;;;;12.27;4.57;;;8.00;99.90;;;;;;5043810;28;20064;-67
2024/01/22 02:08:07;;;;;;;10.60;4.70;;;7.90;99.90;;;;;;5063040;28;20572;-67
2024/01/22 02:10:32;;;;;;;14.07;4.60;;;7.90;99.90;;;;;;5048586;28;20123;-67
2024/01/22 02:13:01;;;;;;;8.65;4.40;;;8.00;99.90;;;;;;5048809;28;20136;-67
2024/01/22 02:15:26;;;;;;;12.63;4.78;;;8.00;99.90;;;;;;5047872;28;20539;-67
2024/01/22 02:17:52;;;;;;;9.73;4.32;;;8.00;99.90;;;;;;5061600;28;20039;-67
2024/01/22 02:20:18;;;;;;;12.07;5.05;;;8.00;99.90;;;;;;5063184;28;20032;-66
2024/01/22 02:22:44;;;;;;;12.93;4.45;;;8.00;99.90;;;;;;5062960;28;20400;-69
2024/01/22 02:25:10;;;;;;;12.32;4.63;;;8.10;99.90;;;;;;5064069;28;20422;-68
2024/01/22 02:27:36;;;;;;;12.48;4.65;;;8.00;99.90;;;;;;5047057;28;20159;-68
2024/01/22 02:30:01;;;;;;;9.10;4.07;;;8.10;99.90;;;;;;5063707;28;20535;-68
2024/01/22 02:32:27;;;;;;;11.93;4.30;;;8.10;99.90;;;;;;5064361;28;20413;-67
2024/01/22 02:34:53;;;;;;;9.43;4.00;;;8.30;99.90;;;;;;5047620;28;20115;-67
2024/01/22 02:37:19;;;;;;;11.20;4.78;;;8.10;99.90;;;;;;5064025;28;20048;-65
2024/01/22 02:39:44;;;;;;;9.65;4.15;;;8.20;99.90;;;;;;5064374;28;20374;-67
2024/01/22 02:42:10;;;;;;;9.35;4.03;;;8.10;99.90;;;;;;5063846;28;20643;-66
2024/01/22 02:44:36;;;;;;;12.05;3.90;;;8.20;99.90;;;;;;5067029;28;20043;-69
2024/01/22 02:47:03;;;;;;;11.00;3.72;;;8.20;99.90;;;;;;5047035;28;20048;-67
2024/01/22 02:49:29;;;;;;;10.13;4.22;;;8.20;99.90;;;;;;5092554;27;20512;-68
2024/01/22 02:51:54;;;;;;;11.20;4.10;;;8.30;99.90;;;;;;5047979;28;20047;-67
2024/01/22 02:54:21;;;;;;;11.50;4.47;;;8.30;99.90;;;;;;5062618;28;20554;-68
2024/01/22 02:56:46;;;;;;;9.32;3.55;;;8.30;99.90;;;;;;5093185;28;20528;-70
2024/01/22 02:59:12;;;;;;;11.52;4.00;;;8.40;99.90;;;;;;5063305;28;20149;-71
2024/01/22 03:01:38;;;;;;;10.73;4.30;;;8.40;99.90;;;;;;5063886;28;20048;-71
2024/01/22 03:04:04;;;;;;;7.68;3.72;;;8.40;99.90;;;;;;5049892;28;20059;-70
2024/01/22 03:06:30;;;;;;;8.63;3.88;;;8.50;99.90;;;;;;5064273;28;20441;-70
2024/01/22 03:08:55;;;;;;;7.88;3.70;;;8.30;99.90;;;;;;5064385;28;20389;-73
2024/01/22 03:11:22;;;;;;;9.30;4.43;;;8.40;99.90;;;;;;5059497;28;20053;-69
2024/01/22 03:13:48;;;;;;;8.50;4.38;;;8.40;99.90;;;;;;5052439;28;20135;-71
2024/01/22 03:16:13;;;;;;;10.10;4.38;;;8.40;99.90;;;;;;5066977;28;20374;-72
2024/01/22 03:18:39;;;;;;;12.18;3.80;;;8.40;99.90;;;;;;5060392;28;20053;-70
2024/01/22 03:21:05;;;;;;;12.43;4.03;;;9.00;99.90;;;;;;5057116;28;20227;-73
2024/01/22 03:23:31;;;;;;;10.70;4.30;;;8.40;99.90;;;;;;5047171;28;20041;-71
2024/01/22 03:25:57;;;;;;;10.10;3.85;;;8.40;99.90;;;;;;5037752;28;20102;-70
2024/01/22 03:28:23;;;;;;;9.55;4.03;;;8.40;99.90;;;;;;5056079;28;20595;-71
2024/01/22 03:30:49;;;;;;;8.85;3.78;;;8.90;99.90;;;;;;5092180;28;20041;-70
2024/01/22 03:33:14;;;;;;;10.30;3.83;;;8.40;99.90;;;;;;5063276;28;20558;-71
2024/01/22 03:35:40;;;;;;;10.48;4.20;;;8.80;99.90;;;;;;5064264;28;20110;-71
2024/01/22 03:38:06;;;;;;;6.53;3.70;;;8.50;99.90;;;;;;5046775;28;20109;-71
2024/01/22 03:40:31;;;;;;;9.88;3.45;;;8.40;99.90;;;;;;5063189;28;20036;-70
2024/01/22 03:42:59;;;;;;;10.23;3.35;;;8.40;99.90;;;;;;5062988;28;20044;-70
2024/01/22 03:45:25;;;;;;;13.57;4.05;;;8.50;99.90;;;;;;5063026;28;20040;-71
2024/01/22 03:47:51;;;;;;;10.13;3.78;;;8.40;99.90;;;;;;5046509;28;20041;-72
2024/01/22 03:50:16;;;;;;;8.02;3.25;;;9.00;99.90;;;;;;5046730;28;20463;-71
2024/01/22 03:52:42;;;;;;;9.15;3.60;;;8.40;99.90;;;;;;5046416;28;20052;-70
2024/01/22 03:55:09;;;;;;;7.40;3.58;;;8.40;99.90;;;;;;5062734;28;20059;-70
2024/01/22 03:57:35;;;;;;;7.22;3.28;;;8.50;99.90;;;;;;5062854;28;20099;-72
2024/01/22 04:00:00;;;;;;;8.75;3.35;;;8.50;99.90;;;;;;5064632;28;20051;-71
2024/01/22 04:02:26;;;;;;;8.38;3.70;;;8.50;99.90;;;;;;5062566;28;20135;-71
2024/01/22 04:04:53;;;;;;;6.47;3.58;;;8.60;99.90;;;;;;5045876;28;20044;-71
2024/01/22 04:07:19;;;;;;;9.00;3.28;;;8.50;99.90;;;;;;5061872;28;20041;-71
2024/01/22 04:09:47;;;;;;;8.48;3.30;;;8.50;99.90;;;;;;5046338;28;20052;-69
2024/01/22 04:12:13;;;;;;;9.10;3.22;;;8.60;99.90;;;;;;5062329;28;20040;-71
2024/01/22 04:14:39;;;;;;;6.60;3.17;;;8.80;99.90;;;;;;5063305;28;20048;-70
2024/01/22 04:17:04;;;;;;;7.97;2.85;;;8.90;99.90;;;;;;5065402;28;20033;-71
2024/01/22 04:19:30;;;;;;;5.72;2.90;;;8.60;99.90;;;;;;5062628;28;20127;-71
2024/01/22 04:21:56;;;;;;;6.30;2.78;;;8.60;99.90;;;;;;5062433;28;20072;-71
2024/01/22 04:24:21;;;;;;;6.20;2.80;;;8.70;99.90;;;;;;5061824;28;20060;-71
2024/01/22 04:26:47;;;;;;;5.88;2.72;;;8.70;99.90;;;;;;5062870;28;20051;-71
2024/01/22 04:29:13;;;;;;;5.85;2.88;;;8.70;99.90;;;;;;5061270;28;20105;-71
2024/01/22 04:31:38;;;;;;;6.18;3.00;;;8.70;99.90;;;;;;5061426;28;20189;-67
2024/01/22 04:34:04;;;;;;;7.15;3.30;;;8.80;99.90;;;;;;5061883;28;20061;-68
2024/01/22 04:36:30;;;;;;;7.35;2.80;;;8.80;99.90;;;;;;5062319;28;20098;-67
2024/01/22 04:38:56;;;;;;;6.95;2.97;;;8.80;99.90;;;;;;5060583;28;20044;-67
2024/01/22 04:41:22;;;;;;;7.15;2.65;;;8.90;99.90;;;;;;5044966;28;20892;-68
2024/01/22 04:43:48;;;;;;;4.55;2.15;;;8.90;99.90;;;;;;5062373;28;20048;-68
2024/01/22 04:46:13;;;;;;;8.27;2.83;;;8.80;99.90;;;;;;5061648;28;20425;-67
2024/01/22 04:48:39;;;;;;;6.22;2.55;;;8.90;99.90;;;;;;5061678;28;20090;-67
2024/01/22 04:51:05;;;;;;;9.10;2.20;;;9.10;99.90;;;;;;5062371;28;20098;-68
2024/01/22 04:53:31;;;;;;;7.75;2.42;;;9.00;99.90;;;;;;5063878;28;20119;-68
2024/01/22 04:55:56;;;;;;;4.60;2.35;;;9.00;99.90;;;;;;5062059;28;20646;-69
2024/01/22 04:58:22;;;;;;;4.72;2.10;;;9.00;99.90;;;;;;5060901;28;20076;-67
2024/01/22 05:00:47;;;;;;;5.32;2.63;;;9.10;99.90;;;;;;5060426;28;20056;-67
2024/01/22 05:03:13;;;;;;;6.40;2.50;;;9.10;99.90;;;;;;5061524;28;20051;-68
2024/01/22 05:05:39;;;;;;;5.00;2.35;;;9.10;99.90;;;;;;5062249;28;20086;-67
2024/01/22 05:08:05;;;;;;;5.75;2.30;;;9.20;99.90;;;;;;5045050;28;20072;-68
2024/01/22 05:10:31;;;;;;;5.25;2.00;;;9.20;99.90;;;;;;5060420;28;20109;-67
2024/01/22 05:12:57;;;;;;;4.68;2.10;;;9.30;99.90;;;;;;5060983;28;20040;-67
2024/01/22 05:15:23;;;;;;;4.35;1.98;;;9.40;99.90;;;;;;5059064;28;20106;-68
2024/01/22 05:17:48;;;;;;;4.93;1.88;;;9.40;99.90;;;;;;5060921;28;20507;-67
2024/01/22 05:20:14;;;;;;;6.82;2.10;;;9.40;99.90;;;;;;5061515;28;20054;-67
2024/01/22 05:22:40;;;;;;;3.00;1.65;;;9.50;99.90;;;;;;5060940;28;20122;-67
2024/01/22 05:25:08;;;;;;;7.75;1.80;;;9.50;99.90;;;;;;5061050;28;20048;-68
2024/01/22 05:27:33;;;;;;;4.32;1.60;;;9.60;99.90;;;;;;5060550;28;20058;-68
2024/01/22 05:29:59;;;;;;;5.30;1.75;;;9.60;99.90;;;;;;5062326;28;20040;-69
2024/01/22 05:32:25;;;;;;;5.10;1.63;;;9.70;99.90;;;;;;5061098;28;20036;-70
2024/01/22 05:34:51;;;;;;;2.88;1.20;;;9.70;99.90;;;;;;5061350;28;20037;-68
2024/01/22 05:37:16;;;;;;;3.88;1.38;;;9.70;99.90;;;;;;5061415;28;20141;-69
2024/01/22 05:39:42;;;;;;;2.95;1.38;;;10.00;99.90;;;;;;5061433;28;20067;-69
2024/01/22 05:42:08;;;;;;;3.83;1.20;;;9.90;99.90;;;;;;5044831;28;20033;-70
2024/01/22 05:44:33;;;;;;;1.92;1.05;;;9.90;99.90;;;;;;5044959;28;20048;-68
2024/01/22 05:46:59;;;;;;;3.75;1.20;;;9.90;99.90;;;;;;5044363;28;20106;-71
2024/01/22 05:49:25;;;;;;;8.18;1.50;;;10.00;99.90;;;;;;5061879;28;20401;-68
2024/01/22 05:51:51;;;;;;;5.07;1.30;;;10.00;99.90;;;;;;5063833;28;20097;-68
2024/01/22 05:54:16;;;;;;;7.28;1.50;;;10.00;99.90;;;;;;5044001;28;20030;-69
2024/01/22 05:56:42;;;;;;;6.28;1.60;;;10.10;99.90;;;;;;5061754;28;20504;-70
2024/01/22 05:59:08;;;;;;;9.65;2.22;;;10.10;99.90;;;;;;5058616;28;20039;-69
2024/01/22 06:01:33;;;;;;;10.00;1.50;;;10.10;99.90;;;;;;5045456;28;20048;-69
2024/01/22 06:04:00;;;;;;;3.75;1.30;;;10.10;99.90;;;;;;5060839;28;20049;-70
2024/01/22 06:06:25;;;;;;;5.53;1.70;;;10.10;99.90;;;;;;5059788;28;21098;-70
2024/01/22 06:08:51;;;;;;;6.05;1.77;;;10.10;99.90;;;;;;5061192;28;20102;-69
2024/01/22 06:11:18;;;;;;;6.47;1.50;;;10.10;99.90;;;;;;5061051;28;20050;-69
2024/01/22 06:13:44;;;;;;;5.35;1.40;;;10.10;99.90;;;;;;5057416;28;20448;-68
2024/01/22 06:16:13;;;;;;;7.80;1.50;;;10.10;99.90;;;;;;5038690;28;20417;-69
2024/01/22 06:18:41;;;;;;;8.85;1.70;;;10.10;99.90;;;;;;5042840;28;20044;-69
2024/01/22 06:21:07;;;;;;;8.98;1.80;;;10.10;99.90;;;;;;5062117;28;20036;-68
2024/01/22 06:23:34;;;;;;;6.07;1.35;;;10.10;99.90;;;;;;5044191;28;20056;-69
2024/01/22 06:26:00;;;;;;;10.50;1.88;;;10.10;99.90;;;;;;5049285;28;20412;-69
2024/01/22 06:28:28;;;;;;;4.53;1.20;;;10.10;99.90;;;;;;5027746;28;20473;-69
2024/01/22 06:30:54;;;;;;;8.15;1.50;;;10.10;99.90;;;;;;5043307;28;20494;-69
2024/01/22 06:33:21;;;;;;;8.65;1.60;;;10.10;99.90;;;;;;5044034;28;20123;-69
2024/01/22 06:35:47;;;;;;;6.00;1.65;;;10.10;99.90;;;;;;5052170;28;20052;-69
2024/01/22 06:38:14;;;;;;;10.15;1.70;;;10.10;99.90;;;;;;5032083;28;20068;-69
2024/01/22 06:40:42;;;;;;;12.25;2.00;;;10.10;99.90;;;;;;5057394;28;20052;-70
2024/01/22 06:43:07;;;;;;;14.32;2.20;;;10.10;99.90;;;;;;5034789;28;20045;-69
2024/01/22 06:45:33;;;;;;;15.55;2.47;;;10.10;99.90;;;;;;5053903;28;20091;-68
2024/01/22 06:47:59;;;;;;;10.80;2.47;;;10.10;99.90;;;;;;5055688;28;20056;-68
2024/01/22 06:50:25;;;;;;;11.70;2.35;;;10.10;99.90;;;;;;5053631;28;20054;-69
2024/01/22 06:52:51;;;;;;;13.30;2.10;;;10.00;99.90;;;;;;5040039;28;20049;-70
2024/01/22 06:55:16;;;;;;;14.60;2.25;;;10.00;99.90;;;;;;5059130;28;20045;-68
2024/01/22 06:57:42;;;;;;;12.15;2.70;;;10.00;99.90;;;;;;5045747;28;20053;-69
2024/01/22 07:00:09;;;;;;;15.38;2.97;;;10.10;99.90;;;;;;5061854;28;20051;-68
2024/01/22 07:02:37;;;;;;;25.15;3.33;;;10.00;99.90;;;;;;5059773;28;20037;-68
2024/01/22 07:05:06;;;;;;;18.00;2.65;;;10.00;99.90;;;;;;5060665;28;20063;-68
2024/01/22 07:07:32;;;;;;;19.58;3.03;;;10.00;99.90;;;;;;5081114;28;20550;-69
2024/01/22 07:09:58;;;;;;;25.02;3.95;;;10.00;99.90;;;;;;5041062;28;20074;-68
2024/01/22 07:12:25;;;;;;;23.42;3.05;;;10.00;99.90;;;;;;5057037;28;20070;-68
2024/01/22 07:14:51;;;;;;;19.15;3.53;;;10.00;99.90;;;;;;5058474;28;20130;-69
2024/01/22 07:17:20;;;;;;;20.02;3.20;;;10.00;99.90;;;;;;5059684;28;20048;-68
2024/01/22 07:19:46;;;;;;;30.17;4.07;;;9.90;99.90;;;;;;5060631;28;20072;-69
2024/01/22 07:22:12;;;;;;;29.60;5.15;;;10.00;99.90;;;;;;5058940;28;20076;-69
2024/01/22 07:24:38;;;;;;;29.67;4.57;;;9.90;99.90;;;;;;5090438;27;20261;-69
2024/01/22 07:27:04;;;;;;;30.88;4.05;;;10.10;99.90;;;;;;5062683;28;20912;-68
2024/01/22 07:29:34;;;;;;;21.63;3.95;;;9.90;99.90;;;;;;5060571;28;20382;-69
2024/01/22 07:32:00;;;;;;;38.60;4.95;;;9.90;99.90;;;;;;5062371;28;20048;-68
2024/01/22 07:34:26;;;;;;;28.85;4.45;;;9.90;99.90;;;;;;5063115;28;20932;-69
2024/01/22 07:36:52;;;;;;;35.80;4.70;;;9.90;99.90;;;;;;5061810;28;20056;-69
2024/01/22 07:39:18;;;;;;;29.52;4.35;;;10.00;99.90;;;;;;5042523;28;20112;-68
2024/01/22 07:41:44;;;;;;;36.28;5.43;;;10.00;99.90;;;;;;5065901;28;20113;-69
2024/01/22 07:44:10;;;;;;;39.35;5.85;;;9.90;99.90;;;;;;5061576;28;20056;-68
2024/01/22 07:46:36;;;;;;;33.15;6.40;;;9.90;99.90;;;;;;5060277;28;20040;-68
2024/01/22 07:49:02;;;;;;;46.70;7.63;;;9.90;99.90;;;;;;5047068;28;20056;-68
2024/01/22 07:51:29;;;;;;;39.28;5.18;;;10.20;99.90;;;;;;5060976;28;20117;-69
2024/01/22 07:53:55;;;;;;;35.42;4.95;;;9.90;99.90;;;;;;5061813;28;20040;-68
2024/01/22 07:56:21;;;;;;;34.63;4.78;;;10.30;99.90;;;;;;5058054;28;20040;-69
2024/01/22 07:58:47;;;;;;;36.35;5.82;;;9.80;99.90;;;;;;5061306;28;20063;-69
2024/01/22 08:01:12;;;;;;;44.90;6.72;;;9.90;99.90;;;;;;5066654;28;20040;-69
2024/01/22 08:03:38;;;;;;;40.75;5.78;;;9.80;99.90;;;;;;5042722;28;20052;-68
2024/01/22 08:06:04;;;;;;;38.30;5.85;;;9.80;99.90;;;;;;5058542;28;20052;-69
2024/01/22 08:08:30;;;;;;;46.25;6.18;;;9.70;99.90;;;;;;5070176;28;20052;-68
2024/01/22 08:10:56;;;;;;;40.17;5.30;;;9.70;99.90;;;;;;5058928;28;20563;-68
2024/01/22 08:13:23;;;;;;;37.83;5.78;;;9.70;99.90;;;;;;5051227;28;20082;-68
2024/01/22 08:15:49;;;;;;;45.63;6.32;;;9.60;99.90;;;;;;5053222;28;20047;-69
2024/01/22 08:18:15;;;;;;;36.95;6.03;;;9.60;99.90;;;;;;5038671;28;20684;-69
2024/01/22 08:20:41;;;;;;;34.72;5.70;;;9.60;99.90;;;;;;5066639;28;20044;-69
2024/01/22 08:23:09;;;;;;;37.97;5.60;;;9.60;99.90;;;;;;5060355;28;20110;-68
2024/01/22 08:25:35;;;;;;;42.65;5.63;;;9.60;99.90;;;;;;5060748;28;20121;-70
2024/01/22 08:28:02;;;;;;;34.47;5.82;;;9.50;99.90;;;;;;5044121;28;20119;-68
2024/01/22 08:30:28;;;;;;;36.75;5.88;;;9.50;99.90;;;;;;5059205;28;20041;-68
2024/01/22 08:32:53;;;;;;;37.55;5.38;;;9.50;99.90;;;;;;5060426;28;20051;-69
2024/01/22 08:35:19;;;;;;;35.50;5.60;;;9.50;99.90;;;;;;5042841;28;20613;-69
2024/01/22 08:37:50;;;;;;;46.75;5.75;;;9.50;99.90;;;;;;5044034;28;20040;-68
2024/01/22 08:40:17;;;;;;;35.95;5.90;;;9.40;99.90;;;;;;5058615;28;20560;-69
2024/01/22 08:42:45;;;;;;;38.55;5.95;;;9.50;99.90;;;;;;5058872;28;20048;-68
2024/01/22 08:45:11;;;;;;;37.78;6.07;;;9.70;99.90;;;;;;5058007;28;20032;-70
2024/01/22 08:47:37;;;;;;;35.45;5.80;;;9.40;99.90;;;;;;5038413;28;20043;-68
2024/01/22 08:50:04;;;;;;;37.13;6.47;;;9.40;99.90;;;;;;5054498;28;20055;-68
2024/01/22 08:52:30;;;;;;;45.55;7.30;;;9.40;99.90;;;;;;5050277;28;20046;-68
2024/01/22 08:54:56;;;;;;;48.33;7.32;;;9.40;99.90;;;;;;5049256;28;20394;-69
2024/01/22 08:57:22;;;;;;;49.10;7.60;;;9.40;99.90;;;;;;5041900;28;20051;-72
2024/01/22 08:59:48;;;;;;;53.05;8.32;;;9.60;99.90;;;;;;5053335;28;20139;-70
2024/01/22 09:02:14;;;;;;;58.22;8.40;;;9.40;99.90;;;;;;5049556;28;20127;-70
2024/01/22 09:04:40;;;;;;;59.72;8.98;;;9.40;99.90;;;;;;5054992;28;20249;-71
2024/01/22 09:07:06;;;;;;;73.90;9.68;;;9.30;99.90;;;;;;5046996;28;20390;-71
2024/01/22 09:09:31;;;;;;;62.05;8.95;;;9.30;99.90;;;;;;5048142;28;20048;-71
2024/01/22 09:11:57;;;;;;;62.97;8.80;;;9.30;99.90;;;;;;5068089;28;20130;-71
2024/01/22 09:14:23;;;;;;;54.97;8.85;;;9.40;99.90;;;;;;5052927;28;20036;-71
2024/01/22 09:16:48;;;;;;;62.90;10.15;;;9.30;99.90;;;;;;5053622;28;20455;-70
2024/01/22 09:19:14;;;;;;;72.43;8.85;;;9.30;99.90;;;;;;5035960;28;20041;-71
2024/01/22 09:21:40;;;;;;;57.72;8.27;;;9.30;99.90;;;;;;5038717;28;20154;-71
2024/01/22 09:24:05;;;;;;;61.47;8.50;;;9.30;99.90;;;;;;5054727;28;20137;-71
2024/01/22 09:26:31;;;;;;;61.92;9.98;;;9.20;99.90;;;;;;5058980;28;20049;-71
2024/01/22 09:28:57;;;;;;;68.38;10.43;;;9.20;99.90;;;;;;5058722;28;20052;-70
2024/01/22 09:31:22;;;;;;;70.30;9.43;;;9.30;99.90;;;;;;5059281;28;20051;-71
2024/01/22 09:33:50;;;;;;;48.95;8.65;;;9.30;99.90;;;;;;5058654;28;20052;-71
2024/01/22 09:36:17;;;;;;;57.10;8.57;;;9.20;99.90;;;;;;5059072;28;20052;-71
2024/01/22 09:38:43;;;;;;;61.65;8.68;;;9.20;99.90;;;;;;5058271;28;20048;-72
2024/01/22 09:41:09;;;;;;;49.00;8.23;;;9.20;99.90;;;;;;5059642;28;20409;-71
2024/01/22 09:43:37;;;;;;;50.83;7.45;;;9.20;99.90;;;;;;5059346;28;20044;-71
2024/01/22 09:46:03;;;;;;;48.15;8.07;;;9.20;99.90;;;;;;5057866;28;20589;-72
2024/01/22 09:48:32;;;;;;;64.28;9.20;;;9.30;99.90;;;;;;5059262;28;20067;-71
2024/01/22 09:51:00;;;;;;;48.58;7.85;;;9.30;99.90;;;;;;5040590;28;20060;-71
2024/01/22 09:53:28;;;;;;;48.78;6.93;;;9.30;99.90;;;;;;5089867;28;20048;-72
2024/01/22 09:55:56;;;;;;;47.55;6.95;;;9.20;99.90;;;;;;5057688;28;20056;-72
2024/01/22 09:58:27;;;;;;;49.70;7.35;;;9.30;99.90;;;;;;5039394;28;20033;-72
2024/01/22 10:00:54;;;;;;;47.20;7.15;;;9.30;99.90;;;;;;5057907;28;20044;-72
2024/01/22 10:03:20;;;;;;;48.22;7.32;;;9.20;99.90;;;;;;5057865;28;20093;-71
2024/01/22 10:05:51;;;;;;;40.53;7.32;;;9.20;99.90;;;;;;5059566;28;20053;-72
2024/01/22 10:08:16;;;;;;;42.92;7.97;;;9.30;99.90;;;;;;5041454;28;20071;-72
2024/01/22 10:10:42;;;;;;;49.90;7.15;;;9.20;99.90;;;;;;5040819;28;20044;-72
2024/01/22 10:13:12;;;;;;;41.42;5.93;;;9.20;99.90;;;;;;5059547;28;20056;-72
2024/01/22 10:15:38;;;;;;;41.85;6.07;;;9.30;99.90;;;;;;5060018;28;20056;-73
2024/01/22 10:18:07;;;;;;;43.67;6.75;;;9.30;99.90;;;;;;5059308;28;20047;-72
2024/01/22 10:20:33;;;;;;;38.15;6.15;;;9.20;99.90;;;;;;5043714;28;20046;-72
2024/01/22 10:23:02;;;;;;;40.08;7.28;;;9.20;99.90;;;;;;5045179;28;20128;-71
2024/01/22 10:25:28;;;;;;;34.47;6.22;;;9.20;99.90;;;;;;5060733;28;20072;-71
2024/01/22 10:28:17;;;;;;;38.95;6.68;;;9.20;99.90;;;;;;5060527;28;20489;-72
2024/01/22 10:30:44;;;;;;;37.20;5.35;;;9.20;99.90;;;;;;5059260;28;20098;-70
2024/01/22 10:33:15;;;;;;;33.25;4.82;;;9.20;99.90;;;;;;5047408;28;20094;-71
2024/01/22 10:35:41;;;;;;;31.92;5.15;;;9.20;99.90;;;;;;5063783;28;20364;-72
2024/01/22 10:38:18;;;;;;;30.38;4.95;;;9.20;99.90;;;;;;5058138;28;20040;-72
2024/01/22 10:40:46;;;;;;;29.42;4.90;;;9.20;99.90;;;;;;5063529;28;20056;-71
2024/01/22 10:43:24;;;;;;;29.88;4.30;;;9.20;99.90;;;;;;5042692;28;20084;-72
2024/01/22 10:45:52;;;;;;;34.22;4.70;;;9.40;99.90;;;;;;5063952;28;20052;-72
2024/01/22 10:48:22;;;;;;;34.20;5.45;;;9.20;99.90;;;;;;5063435;28;20045;-72
2024/01/22 10:50:49;;;;;;;30.33;5.28;;;9.20;99.90;;;;;;5046688;28;20051;-72
2024/01/22 10:53:16;;;;;;;36.10;5.35;;;9.20;99.90;;;;;;5064037;28;20170;-72
2024/01/22 10:55:56;;;;;;;28.67;5.05;;;9.20;99.90;;;;;;5064249;28;20048;-71
2024/01/22 10:58:28;;;;;;;33.45;4.68;;;9.20;99.90;;;;;;5063228;28;20105;-71
2024/01/22 11:01:01;;;;;;;33.60;5.03;;;9.20;99.90;;;;;;5061829;28;20413;-71
2024/01/22 11:03:28;;;;;;;28.95;5.03;;;9.20;99.90;;;;;;5057922;28;20052;-72
2024/01/22 11:05:59;;;;;;;32.70;5.00;;;9.20;99.90;;;;;;5058604;28;20091;-72
2024/01/22 11:08:31;;;;;;;29.40;5.30;;;9.20;99.90;;;;;;5058064;28;20450;-72
2024/01/22 11:10:58;;;;;;;36.75;4.93;;;9.30;99.90;;;;;;5044076;28;20073;-71
2024/01/22 11:13:24;;;;;;;30.48;5.50;;;9.30;99.90;;;;;;5060165;28;20462;-72
2024/01/22 11:15:53;;;;;;;41.70;5.82;;;9.30;99.90;;;;;;5044266;28;20523;-72
2024/01/22 11:18:19;;;;;;;36.55;5.47;;;9.30;99.90;;;;;;5041161;28;20033;-72
2024/01/22 11:20:44;;;;;;;27.42;4.53;;;9.30;99.90;;;;;;5092208;28;20685;-72
2024/01/22 11:23:16;;;;;;;30.38;3.97;;;9.40;99.90;;;;;;5045452;28;20080;-72
2024/01/22 11:25:44;;;;;;;35.53;4.88;;;9.40;99.90;;;;;;5061983;28;20051;-72
2024/01/22 11:28:12;;;;;;;31.67;4.72;;;9.40;99.90;;;;;;5061297;28;20058;-72
2024/01/22 11:30:42;;;;;;;32.78;4.65;;;9.40;99.90;;;;;;5045089;28;20037;-72
2024/01/22 11:33:24;;;;;;;29.75;4.22;;;9.40;99.90;;;;;;5060763;28;20064;-72
2024/01/22 11:35:50;;;;;;;31.08;4.85;;;9.30;99.90;;;;;;5060551;28;20425;-71
2024/01/22 11:38:42;;;;;;;33.30;4.63;;;9.40;99.90;;;;;;5043792;28;20037;-72
2024/01/22 11:41:07;;;;;;;;;;;9.40;99.90;;;;;;5063006;28;20473;-71
2024/01/22 11:43:33;;;;;;;28.52;4.40;;;9.40;99.90;;;;;;5062846;28;19921;-72
2024/01/22 11:46:14;;;;;;;30.17;4.57;;;9.40;99.90;;;;;;5062681;28;20056;-72
2024/01/22 11:48:40;;;;;;;36.10;5.72;;;9.40;99.90;;;;;;5045485;28;20101;-71
2024/01/22 11:51:06;;;;;;;29.13;4.47;;;9.80;99.90;;;;;;5059932;28;20044;-72
2024/01/22 11:53:32;;;;;;;27.75;4.50;;;9.40;99.90;;;;;;5045663;28;20040;-72
2024/01/22 11:56:02;;;;;;;26.33;4.90;;;9.50;99.90;;;;;;5046243;28;20774;-72
2024/01/22 11:58:29;;;;;;;28.23;4.00;;;9.40;99.90;;;;;;5060818;28;20036;-72
2024/01/22 12:00:55;;;;;;;27.33;5.40;;;9.40;99.90;;;;;;5046504;28;20132;-72
2024/01/22 12:03:25;;;;;;;26.30;3.80;;;9.50;99.90;;;;;;5062457;28;20408;-71
2024/01/22 12:06:07;;;;;;;30.98;4.78;;;9.50;99.90;;;;;;5062316;28;20045;-71
2024/01/22 12:08:34;;;;;;;30.02;4.60;;;9.50;99.90;;;;;;5058687;28;20105;-73
2024/01/22 12:11:06;;;;;;;18.05;3.63;;;9.50;99.90;;;;;;5060271;28;20113;-71
2024/01/22 12:13:32;;;;;;;27.08;3.60;;;9.40;99.90;;;;;;5073337;28;20062;-72
2024/01/22 12:15:58;;;;;;;25.60;3.90;;;9.40;99.90;;;;;;5060215;28;20089;-72
2024/01/22 12:18:25;;;;;;;28.10;3.63;;;9.60;99.90;;;;;;5060672;28;20055;-72
2024/01/22 12:20:51;;;;;;;25.90;3.85;;;9.50;99.90;;;;;;5039113;28;20049;-72
2024/01/22 12:23:33;;;;;;;25.95;3.83;;;9.50;99.90;;;;;;5056430;28;20513;-71
2024/01/22 12:26:01;;;;;;;19.77;4.25;;;9.50;99.90;;;;;;5041465;28;20041;-72
2024/01/22 12:28:27;;;;;;;20.60;3.90;;;9.50;99.90;;;;;;5051467;28;20056;-72
2024/01/22 12:31:00;;;;;;;25.48;4.03;;;9.50;99.90;;;;;;5070432;28;20041;-70
2024/01/22 12:33:27;;;;;;;26.77;4.80;;;9.50;99.90;;;;;;5040068;28;20036;-72
2024/01/22 12:36:16;;;;;;;26.05;4.03;;;9.50;99.90;;;;;;5058307;28;20052;-71
2024/01/22 12:38:50;;;;;;;22.20;3.80;;;9.40;99.90;;;;;;5046820;28;20063;-72
2024/01/22 12:41:16;;;;;;;34.33;5.43;;;9.40;99.90;;;;;;5030382;28;20055;-72
2024/01/22 12:43:42;;;;;;;24.92;4.05;;;9.40;99.90;;;;;;5031403;28;20132;-71
2024/01/22 12:46:10;;;;;;;20.52;4.53;;;9.40;99.90;;;;;;5046874;28;20570;-72